Time;durP1;ratioP1;P1;durP2;ratioP2;P2;SDS_P1;SDS_P2;PMS_P1;PMS_P2;Temp;Humidity;BMP_temperature;BMP_pressure;BME280_temperature;BME280_humidity;BME280_pressure;Samples;Min_cycle;Max_cycle;Signal;HPM_P1;HPM_P2
2024/01/08 00:01:50;;;;;;;69.20;45.53;;;;;;;;;;4337199;32;318607;-78
2024/01/08 00:04:17;;;;;;;63.03;43.17;;;;;;;;;;4345788;32;317861;-78
2024/01/08 00:06:44;;;;;;;63.73;41.97;;;;;;;;;;4328045;32;319844;-77
2024/01/08 00:09:14;;;;;;;60.70;41.03;;;;;;;;;;4342854;32;319291;-79
2024/01/08 00:11:42;;;;;;;54.67;36.60;;;;;;;;;;4329789;32;319302;-78
2024/01/08 00:14:11;;;;;;;53.43;34.70;;;;;;;;;;4338617;32;318035;-79
2024/01/08 00:16:41;;;;;;;52.23;35.90;;;;;;;;;;4336308;32;319055;-77
2024/01/08 00:19:09;;;;;;;55.03;36.20;;;;;;;;;;4344498;32;318556;-77
2024/01/08 00:21:39;;;;;;;56.47;36.83;;;;;;;;;;4337312;32;319529;-78
2024/01/08 00:24:07;;;;;;;51.53;37.33;;;;;;;;;;4347544;32;319269;-77
2024/01/08 00:26:35;;;;;;;56.73;35.77;;;;;;;;;;4337177;32;319829;-77
2024/01/08 00:29:04;;;;;;;55.23;36.13;;;;;;;;;;4338032;32;318689;-78
2024/01/08 00:31:31;;;;;;;55.07;36.33;;;;;;;;;;4338778;32;318824;-78
2024/01/08 00:34:00;;;;;;;77.93;50.33;;;;;;;;;;4347469;32;318764;-78
2024/01/08 00:36:28;;;;;;;82.80;49.47;;;;;;;;;;4350852;32;321290;-77
2024/01/08 00:38:56;;;;;;;80.50;51.07;;;;;;;;;;4333945;32;418163;-77
2024/01/08 00:41:25;;;;;;;73.57;46.93;;;;;;;;;;4353138;32;319292;-77
2024/01/08 00:43:53;;;;;;;70.87;49.30;;;;;;;;;;4330179;32;418404;-78
2024/01/08 00:46:24;;;;;;;82.80;48.73;;;;;;;;;;4348296;32;318240;-77
2024/01/08 00:48:59;;;;;;;130.13;60.67;;;;;;;;;;4325041;32;318785;-77
2024/01/08 00:51:30;;;;;;;125.83;60.83;;;;;;;;;;4355676;32;319636;-78
2024/01/08 00:54:00;;;;;;;147.87;65.37;;;;;;;;;;4326182;32;419931;-77
2024/01/08 00:56:38;;;;;;;128.50;62.97;;;;;;;;;;4337057;32;319831;-77
2024/01/08 00:59:12;;;;;;;130.97;59.67;;;;;;;;;;4345099;32;320543;-78
2024/01/08 01:01:52;;;;;;;141.60;59.47;;;;;;;;;;4337876;32;318499;-77
2024/01/08 01:04:24;;;;;;;115.53;57.70;;;;;;;;;;4345327;32;339457;-79
2024/01/08 01:06:52;;;;;;;117.33;55.23;;;;;;;;;;4335116;32;320394;-78
2024/01/08 01:09:22;;;;;;;107.23;53.00;;;;;;;;;;4347528;32;318563;-76
2024/01/08 01:11:49;;;;;;;106.77;54.57;;;;;;;;;;4338322;32;320669;-78
2024/01/08 01:14:34;;;;;;;111.17;54.27;;;;;;;;;;4347532;32;320279;-77
2024/01/08 01:17:00;;;;;;;104.37;52.47;;;;;;;;;;4295252;32;419317;-78
2024/01/08 01:19:27;;;;;;;116.30;53.43;;;;;;;;;;4321324;33;337528;-76
2024/01/08 01:21:54;;;;;;;94.73;48.07;;;;;;;;;;4332818;33;319628;-78
2024/01/08 01:24:21;;;;;;;92.90;47.93;;;;;;;;;;4332274;32;318673;-77
2024/01/08 01:26:47;;;;;;;88.90;50.23;;;;;;;;;;4304320;32;319697;-77
2024/01/08 01:29:15;;;;;;;108.93;51.03;;;;;;;;;;4317067;33;332808;-78
2024/01/08 01:31:44;;;;;;;99.80;49.63;;;;;;;;;;4307454;33;320424;-78
2024/01/08 01:34:13;;;;;;;87.20;43.47;;;;;;;;;;4316908;33;319289;-78
2024/01/08 01:36:40;;;;;;;79.70;39.87;;;;;;;;;;4300960;33;318595;-78
2024/01/08 01:39:08;;;;;;;71.37;41.13;;;;;;;;;;4317287;33;319114;-77
2024/01/08 01:41:37;;;;;;;73.37;41.73;;;;;;;;;;4306914;33;318466;-77
2024/01/08 01:44:07;;;;;;;78.97;40.63;;;;;;;;;;4318325;32;318737;-79
2024/01/08 01:46:47;;;;;;;68.87;37.17;;;;;;;;;;4304810;33;320323;-77
2024/01/08 01:49:19;;;;;;;68.20;36.90;;;;;;;;;;4316901;33;319044;-76
2024/01/08 01:51:49;;;;;;;70.10;36.40;;;;;;;;;;4307738;33;319161;-77
2024/01/08 01:54:21;;;;;;;65.27;37.23;;;;;;;;;;4309835;33;318704;-77
2024/01/08 01:56:51;;;;;;;65.23;36.10;;;;;;;;;;4302349;33;319326;-78
2024/01/08 01:59:21;;;;;;;66.03;37.63;;;;;;;;;;4317948;33;317786;-77
2024/01/08 02:01:50;;;;;;;64.07;35.37;;;;;;;;;;4300265;33;319217;-78
2024/01/08 02:04:32;;;;;;;56.50;33.30;;;;;;;;;;4316907;33;319670;-78
2024/01/08 02:07:03;;;;;;;52.13;32.03;;;;;;;;;;4289164;32;420139;-78
2024/01/08 02:09:31;;;;;;;60.20;34.07;;;;;;;;;;4292844;33;319443;-78
2024/01/08 02:11:59;;;;;;;52.30;32.87;;;;;;;;;;4302843;33;318858;-78
2024/01/08 02:14:29;;;;;;;53.60;34.13;;;;;;;;;;4310790;33;318820;-77
2024/01/08 02:19:40;;;;;;;52.47;31.80;;;;;;;;;;4306769;32;319259;-77
2024/01/08 02:22:07;;;;;;;48.67;30.77;;;;;;;;;;4317709;32;317599;-77
2024/01/08 02:24:36;;;;;;;52.73;31.83;;;;;;;;;;4306765;32;318674;-77
2024/01/08 02:27:04;;;;;;;53.80;31.90;;;;;;;;;;4311192;32;317623;-78
2024/01/08 02:29:35;;;;;;;71.77;40.73;;;;;;;;;;4298693;33;318795;-78
2024/01/08 02:32:03;;;;;;;57.63;35.10;;;;;;;;;;4298661;33;317597;-77
2024/01/08 02:34:30;;;;;;;63.43;38.70;;;;;;;;;;4296926;33;319563;-77
2024/01/08 02:36:58;;;;;;;74.03;42.00;;;;;;;;;;4295833;33;318915;-77
2024/01/08 02:39:28;;;;;;;73.20;41.73;;;;;;;;;;4303538;33;318892;-78
2024/01/08 02:41:59;;;;;;;78.67;41.77;;;;;;;;;;4283302;33;419894;-77
2024/01/08 02:44:35;;;;;;;78.00;41.77;;;;;;;;;;4293514;32;325734;-77
2024/01/08 02:47:04;;;;;;;85.77;42.27;;;;;;;;;;4274790;32;418766;-77
2024/01/08 02:49:32;;;;;;;84.37;44.23;;;;;;;;;;4286167;33;319206;-77
2024/01/08 02:52:01;;;;;;;91.27;43.23;;;;;;;;;;4303548;33;318863;-77
2024/01/08 02:54:30;;;;;;;93.23;47.33;;;;;;;;;;4290963;32;319528;-77
2024/01/08 02:57:03;;;;;;;90.17;45.07;;;;;;;;;;4296671;33;319550;-77
2024/01/08 02:59:30;;;;;;;94.10;46.07;;;;;;;;;;4292221;33;318683;-77
2024/01/08 03:02:06;;;;;;;91.33;48.07;;;;;;;;;;4302830;33;319159;-77
2024/01/08 03:04:34;;;;;;;95.47;52.27;;;;;;;;;;4307129;32;319470;-77
2024/01/08 03:07:03;;;;;;;114.47;54.93;;;;;;;;;;4326507;32;318454;-77
2024/01/08 03:09:32;;;;;;;115.03;57.27;;;;;;;;;;4320455;32;320209;-77
2024/01/08 03:12:06;;;;;;;101.93;53.83;;;;;;;;;;4330050;32;319854;-77
2024/01/08 03:14:35;;;;;;;105.73;52.43;;;;;;;;;;4315519;32;320667;-78
2024/01/08 03:17:08;;;;;;;115.20;54.53;;;;;;;;;;4362007;32;320487;-78
2024/01/08 03:19:38;;;;;;;102.57;53.20;;;;;;;;;;4343146;32;320357;-77
2024/01/08 03:22:08;;;;;;;114.07;55.13;;;;;;;;;;4395394;32;319318;-77
2024/01/08 03:24:36;;;;;;;104.03;54.40;;;;;;;;;;4366809;32;319513;-76
2024/01/08 03:27:09;;;;;;;98.47;49.13;;;;;;;;;;4349877;32;317493;-77
2024/01/08 03:29:39;;;;;;;90.87;47.33;;;;;;;;;;4341221;32;318558;-77
2024/01/08 03:32:11;;;;;;;85.70;47.93;;;;;;;;;;4386358;32;317450;-77
2024/01/08 03:34:42;;;;;;;81.33;42.90;;;;;;;;;;4399673;32;318980;-77
2024/01/08 03:37:11;;;;;;;84.23;42.40;;;;;;;;;;4356163;32;318243;-77
2024/01/08 03:39:43;;;;;;;78.60;42.67;;;;;;;;;;4348408;32;318950;-76
2024/01/08 03:42:20;;;;;;;80.00;40.90;;;;;;;;;;4368280;32;319556;-76
2024/01/08 03:47:32;;;;;;;73.63;39.23;;;;;;;;;;4336286;32;318810;-78
2024/01/08 03:50:02;;;;;;;72.23;37.50;;;;;;;;;;4351392;32;318655;-77
2024/01/08 03:52:29;;;;;;;78.13;41.53;;;;;;;;;;4380577;32;319084;-77
2024/01/08 03:54:55;;;;;;;80.43;39.33;;;;;;;;;;4362827;32;346689;-77
2024/01/08 03:57:26;;;;;;;83.00;39.70;;;;;;;;;;4331142;32;319340;-77
2024/01/08 03:59:56;;;;;;;72.80;37.47;;;;;;;;;;4375584;32;419076;-77
2024/01/08 04:02:27;;;;;;;60.20;35.27;;;;;;;;;;4387104;32;318881;-77
2024/01/08 04:04:55;;;;;;;65.07;37.43;;;;;;;;;;4332067;32;418788;-79
2024/01/08 04:07:23;;;;;;;46.47;28.53;;;;;;;;;;4332997;32;318938;-77
2024/01/08 04:09:53;;;;;;;51.70;31.33;;;;;;;;;;4322353;32;319371;-77
2024/01/08 04:12:47;;;;;;;55.17;30.40;;;;;;;;;;4333155;32;317710;-78
2024/01/08 04:15:14;;;;;;;35.33;22.83;;;;;;;;;;4320747;32;421066;-78
2024/01/08 04:17:42;;;;;;;32.60;22.07;;;;;;;;;;4323775;32;319402;-78
2024/01/08 04:20:10;;;;;;;38.27;22.37;;;;;;;;;;4342047;32;318786;-78
2024/01/08 04:22:37;;;;;;;33.47;22.07;;;;;;;;;;4335243;32;319188;-78
2024/01/08 04:25:06;;;;;;;37.70;23.17;;;;;;;;;;4346900;32;319382;-78
2024/01/08 04:27:34;;;;;;;40.77;23.27;;;;;;;;;;4323938;32;318810;-77
2024/01/08 04:30:04;;;;;;;31.13;21.50;;;;;;;;;;4328591;33;318823;-77
2024/01/08 04:32:32;;;;;;;43.70;25.97;;;;;;;;;;4323095;32;319201;-77
2024/01/08 04:35:09;;;;;;;39.70;25.80;;;;;;;;;;4312026;33;318747;-77
2024/01/08 04:37:39;;;;;;;29.73;21.03;;;;;;;;;;4313953;33;319095;-77
2024/01/08 04:40:07;;;;;;;37.60;21.73;;;;;;;;;;4332132;33;318871;-77
2024/01/08 04:42:38;;;;;;;32.67;23.10;;;;;;;;;;4320720;33;318883;-77
2024/01/08 04:45:08;;;;;;;29.50;21.47;;;;;;;;;;4328206;32;318594;-77
2024/01/08 04:47:36;;;;;;;28.63;20.57;;;;;;;;;;4323130;33;318498;-77
2024/01/08 04:50:06;;;;;;;35.93;23.17;;;;;;;;;;4326049;33;317870;-78
2024/01/08 04:52:35;;;;;;;32.90;21.93;;;;;;;;;;4312162;33;317678;-77
2024/01/08 04:55:02;;;;;;;32.37;22.37;;;;;;;;;;4320761;33;318701;-78
2024/01/08 04:57:30;;;;;;;37.57;24.20;;;;;;;;;;4306641;33;318908;-77
2024/01/08 04:59:59;;;;;;;39.10;25.83;;;;;;;;;;4324665;32;318918;-77
2024/01/08 05:02:32;;;;;;;42.93;26.53;;;;;;;;;;4321873;32;318693;-77
2024/01/08 05:05:01;;;;;;;33.97;23.90;;;;;;;;;;4284707;32;418904;-77
2024/01/08 05:07:30;;;;;;;33.77;21.30;;;;;;;;;;4311261;32;319278;-77
2024/01/08 05:09:58;;;;;;;47.53;25.90;;;;;;;;;;4329138;33;318907;-77
2024/01/08 05:12:27;;;;;;;44.13;26.90;;;;;;;;;;4335384;33;319227;-77
2024/01/08 05:17:50;;;;;;;35.90;23.90;;;;;;;;;;4323443;32;319331;-77
2024/01/08 05:20:18;;;;;;;45.83;25.03;;;;;;;;;;4332151;32;327433;-76
2024/01/08 05:22:46;;;;;;;35.93;24.03;;;;;;;;;;4317600;32;319232;-76
2024/01/08 05:25:18;;;;;;;36.97;24.43;;;;;;;;;;4332868;33;318927;-78
2024/01/08 05:27:46;;;;;;;49.70;28.73;;;;;;;;;;4320778;32;319139;-78
2024/01/08 05:30:21;;;;;;;56.20;34.97;;;;;;;;;;4346127;32;319560;-77
2024/01/08 05:32:53;;;;;;;54.50;34.90;;;;;;;;;;4304033;32;318872;-78
2024/01/08 05:35:24;;;;;;;45.43;31.47;;;;;;;;;;4333879;32;327080;-77
2024/01/08 05:37:57;;;;;;;52.97;34.07;;;;;;;;;;4303941;32;319260;-77
2024/01/08 05:40:25;;;;;;;52.93;35.50;;;;;;;;;;4317262;32;317854;-78
2024/01/08 05:42:54;;;;;;;53.57;35.33;;;;;;;;;;4306237;32;418706;-77
2024/01/08 05:45:27;;;;;;;44.80;30.90;;;;;;;;;;4346504;32;319498;-78
2024/01/08 05:47:59;;;;;;;46.17;31.60;;;;;;;;;;4311948;32;418740;-78
2024/01/08 05:50:32;;;;;;;40.13;28.90;;;;;;;;;;4316979;32;318677;-78
2024/01/08 05:53:00;;;;;;;38.40;27.97;;;;;;;;;;4320489;32;417959;-78
2024/01/08 05:55:27;;;;;;;37.23;26.43;;;;;;;;;;4347011;32;318750;-77
2024/01/08 05:57:56;;;;;;;31.87;24.80;;;;;;;;;;4332767;32;420059;-77
2024/01/08 06:00:25;;;;;;;27.60;19.50;;;;;;;;;;4321399;32;317837;-78
2024/01/08 06:02:55;;;;;;;30.67;20.03;;;;;;;;;;4302693;32;419725;-77
2024/01/08 06:05:36;;;;;;;29.67;19.50;;;;;;;;;;4316356;33;317902;-78
2024/01/08 06:08:07;;;;;;;21.10;15.57;;;;;;;;;;4297477;32;420107;-78
2024/01/08 06:10:40;;;;;;;20.43;15.27;;;;;;;;;;4317546;32;318574;-77
2024/01/08 06:13:10;;;;;;;23.03;17.20;;;;;;;;;;4331784;32;318717;-79
2024/01/08 06:15:39;;;;;;;26.57;15.43;;;;;;;;;;4322275;33;318875;-77
2024/01/08 06:18:07;;;;;;;31.80;16.40;;;;;;;;;;4329363;33;342231;-78
2024/01/08 06:20:41;;;;;;;22.43;15.80;;;;;;;;;;4290727;32;317945;-79
2024/01/08 06:23:12;;;;;;;19.07;13.50;;;;;;;;;;4318371;33;317734;-78
2024/01/08 06:25:42;;;;;;;27.83;15.40;;;;;;;;;;4296370;32;318558;-78
2024/01/08 06:28:11;;;;;;;41.33;18.80;;;;;;;;;;4310466;32;329780;-78
2024/01/08 06:30:42;;;;;;;27.77;16.40;;;;;;;;;;4319078;32;334493;-78
2024/01/08 06:33:12;;;;;;;24.43;15.23;;;;;;;;;;4324075;32;318693;-78
2024/01/08 06:35:58;;;;;;;30.60;17.57;;;;;;;;;;4305408;32;318753;-77
2024/01/08 06:38:25;;;;;;;27.87;19.23;;;;;;;;;;4333381;32;318706;-78
2024/01/08 06:40:56;;;;;;;32.03;19.73;;;;;;;;;;4293873;32;419148;-79
2024/01/08 06:43:24;;;;;;;43.70;27.67;;;;;;;;;;4328655;32;319210;-78
2024/01/08 06:45:52;;;;;;;41.10;26.33;;;;;;;;;;4334298;32;319021;-78
2024/01/08 06:48:20;;;;;;;37.73;21.90;;;;;;;;;;4344546;32;318844;-77
2024/01/08 06:50:48;;;;;;;43.40;31.00;;;;;;;;;;4330619;32;318910;-78
2024/01/08 06:53:17;;;;;;;39.63;25.67;;;;;;;;;;4341105;32;319204;-78
2024/01/08 06:55:45;;;;;;;60.10;34.53;;;;;;;;;;4332960;32;319437;-78
2024/01/08 06:58:12;;;;;;;93.03;47.70;;;;;;;;;;4344026;32;319469;-78
2024/01/08 07:00:39;;;;;;;71.50;39.40;;;;;;;;;;4329072;32;319105;-78
2024/01/08 07:03:05;;;;;;;64.93;41.20;;;;;;;;;;4343558;32;319485;-78
2024/01/08 07:05:32;;;;;;;78.87;49.63;;;;;;;;;;4313571;32;319401;-78
2024/01/08 07:08:06;;;;;;;141.43;71.63;;;;;;;;;;4346005;32;319409;-78
2024/01/08 07:10:49;;;;;;;144.27;74.67;;;;;;;;;;4324965;32;320064;-77
2024/01/08 07:13:17;;;;;;;110.90;64.43;;;;;;;;;;4333029;32;319921;-78
2024/01/08 07:15:48;;;;;;;137.13;77.07;;;;;;;;;;4335410;32;320941;-77
2024/01/08 07:18:16;;;;;;;118.90;69.53;;;;;;;;;;4343116;32;319662;-78
2024/01/08 07:20:43;;;;;;;101.43;64.10;;;;;;;;;;4329981;32;320467;-77
2024/01/08 07:23:12;;;;;;;99.53;60.67;;;;;;;;;;4335349;32;319673;-78
2024/01/08 07:25:42;;;;;;;93.33;57.17;;;;;;;;;;4328454;32;319295;-77
2024/01/08 07:28:11;;;;;;;93.80;59.57;;;;;;;;;;4347766;32;319332;-77
2024/01/08 07:30:39;;;;;;;90.00;56.13;;;;;;;;;;4331650;32;319372;-78
2024/01/08 07:33:10;;;;;;;85.50;56.47;;;;;;;;;;4335350;32;348021;-77
2024/01/08 07:35:38;;;;;;;85.87;56.13;;;;;;;;;;4330232;32;319454;-77
2024/01/08 07:38:07;;;;;;;81.13;53.87;;;;;;;;;;4358426;32;318486;-78
2024/01/08 07:40:34;;;;;;;80.13;52.20;;;;;;;;;;4330263;32;323469;-78
2024/01/08 07:43:04;;;;;;;79.80;50.73;;;;;;;;;;4339346;32;318947;-78
2024/01/08 07:45:31;;;;;;;83.73;52.70;;;;;;;;;;4345045;32;317545;-79
2024/01/08 07:47:59;;;;;;;84.47;54.30;;;;;;;;;;4334095;32;420538;-77
2024/01/08 07:50:28;;;;;;;101.23;62.23;;;;;;;;;;4344473;32;319184;-78
2024/01/08 07:52:56;;;;;;;108.90;68.40;;;;;;;;;;4315879;32;320559;-78
2024/01/08 07:55:22;;;;;;;97.90;60.13;;;;;;;;;;4343545;32;319703;-78
2024/01/08 07:57:50;;;;;;;90.13;55.80;;;;;;;;;;4322592;32;318676;-78
2024/01/08 08:00:21;;;;;;;85.47;54.57;;;;;;;;;;4341832;32;317447;-78
2024/01/08 08:02:48;;;;;;;76.90;49.30;;;;;;;;;;4356350;32;317377;-78
2024/01/08 08:05:17;;;;;;;59.27;39.40;;;;;;;;;;4374803;32;20299;-78
2024/01/08 08:07:45;;;;;;;72.67;38.63;;;;;;;;;;4375074;32;20271;-78
2024/01/08 08:10:13;;;;;;;96.30;55.60;;;;;;;;;;4375343;32;20243;-78
2024/01/08 08:12:41;;;;;;;83.97;52.13;;;;;;;;;;4379179;32;20215;-77
2024/01/08 08:15:10;;;;;;;80.90;48.83;;;;;;;;;;4358810;32;318319;-77
2024/01/08 08:17:40;;;;;;;81.13;52.73;;;;;;;;;;4345141;32;319592;-78
2024/01/08 08:20:09;;;;;;;87.37;55.00;;;;;;;;;;4334219;32;347925;-78
2024/01/08 08:22:38;;;;;;;94.37;59.77;;;;;;;;;;4347492;32;319539;-78
2024/01/08 08:25:07;;;;;;;96.67;57.20;;;;;;;;;;4326643;32;321119;-78
2024/01/08 08:27:35;;;;;;;71.03;47.40;;;;;;;;;;4346006;32;319328;-78
2024/01/08 08:30:03;;;;;;;67.53;42.97;;;;;;;;;;4337111;32;319339;-78
2024/01/08 08:32:31;;;;;;;64.03;40.93;;;;;;;;;;4345938;32;319494;-77
2024/01/08 08:35:03;;;;;;;65.27;41.37;;;;;;;;;;4334757;32;318853;-78
2024/01/08 08:37:31;;;;;;;54.53;35.80;;;;;;;;;;4344959;32;319080;-77
2024/01/08 08:39:59;;;;;;;51.57;33.50;;;;;;;;;;4336556;32;319615;-78
2024/01/08 08:42:27;;;;;;;54.13;35.07;;;;;;;;;;4346359;32;319080;-78
2024/01/08 08:44:54;;;;;;;44.27;29.63;;;;;;;;;;4336290;32;318957;-77
2024/01/08 08:47:22;;;;;;;42.20;28.33;;;;;;;;;;4336995;32;318831;-78
2024/01/08 08:49:50;;;;;;;25.60;19.70;;;;;;;;;;4342946;32;319381;-77
2024/01/08 08:52:18;;;;;;;14.10;10.27;;;;;;;;;;4332745;32;418465;-77
2024/01/08 08:54:45;;;;;;;18.23;8.70;;;;;;;;;;4344547;32;319351;-78
2024/01/08 08:57:12;;;;;;;15.63;9.53;;;;;;;;;;4313959;32;318488;-77
2024/01/08 08:59:40;;;;;;;9.90;7.60;;;;;;;;;;4316239;33;356766;-77
2024/01/08 09:02:08;;;;;;;10.50;7.57;;;;;;;;;;4306007;33;317631;-77
2024/01/08 09:04:35;;;;;;;8.93;7.17;;;;;;;;;;4314098;32;318122;-78
2024/01/08 09:07:02;;;;;;;24.40;13.70;;;;;;;;;;4302652;32;317084;-77
2024/01/08 09:09:32;;;;;;;14.57;9.37;;;;;;;;;;4315549;32;318877;-77
2024/01/08 09:12:00;;;;;;;6.53;4.27;;;;;;;;;;4306931;32;318346;-78
2024/01/08 09:14:28;;;;;;;6.27;4.57;;;;;;;;;;4317731;32;316992;-78
2024/01/08 09:16:55;;;;;;;4.80;3.57;;;;;;;;;;4306468;32;314625;-78
2024/01/08 09:19:23;;;;;;;6.17;4.43;;;;;;;;;;4310378;32;314974;-77
2024/01/08 09:21:49;;;;;;;6.07;3.77;;;;;;;;;;4313592;32;333620;-78
2024/01/08 09:24:17;;;;;;;6.57;4.20;;;;;;;;;;4305285;32;415423;-78
2024/01/08 09:26:47;;;;;;;7.73;5.50;;;;;;;;;;4317431;32;315566;-78
2024/01/08 09:29:15;;;;;;;10.37;6.27;;;;;;;;;;4324974;32;316312;-77
2024/01/08 09:31:41;;;;;;;10.10;6.33;;;;;;;;;;4297396;32;325968;-77
2024/01/08 09:34:08;;;;;;;10.43;7.30;;;;;;;;;;4314652;32;317332;-78
2024/01/08 09:36:35;;;;;;;12.40;7.97;;;;;;;;;;4307671;32;317277;-78
2024/01/08 09:39:03;;;;;;;14.60;10.23;;;;;;;;;;4316562;32;317291;-78
2024/01/08 09:41:30;;;;;;;28.27;17.90;;;;;;;;;;4306649;32;319133;-78
2024/01/08 09:44:04;;;;;;;26.23;14.67;;;;;;;;;;4308286;32;319409;-77
2024/01/08 09:46:36;;;;;;;37.27;21.97;;;;;;;;;;4315760;32;331416;-78
2024/01/08 09:49:04;;;;;;;28.43;16.03;;;;;;;;;;4313567;32;318279;-78
2024/01/08 09:51:31;;;;;;;11.90;8.40;;;;;;;;;;4316724;32;318236;-80
2024/01/08 09:54:00;;;;;;;15.93;11.37;;;;;;;;;;4301726;32;318297;-78
2024/01/08 09:56:30;;;;;;;15.00;8.83;;;;;;;;;;4330152;32;318755;-79
2024/01/08 09:58:59;;;;;;;29.20;15.27;;;;;;;;;;4342505;33;20211;-77
2024/01/08 10:01:26;;;;;;;14.43;9.60;;;;;;;;;;4342422;33;20312;-77
2024/01/08 10:03:54;;;;;;;17.30;13.00;;;;;;;;;;4345257;33;20328;-77
2024/01/08 10:06:22;;;;;;;19.50;13.30;;;;;;;;;;4347026;33;20222;-77
2024/01/08 10:08:49;;;;;;;13.13;8.93;;;;;;;;;;4347291;33;20244;-78
2024/01/08 10:11:18;;;;;;;9.50;7.20;;;;;;;;;;4348151;33;20331;-77
2024/01/08 10:13:44;;;;;;;14.93;8.93;;;;;;;;;;4323539;32;315012;-77
2024/01/08 10:16:14;;;;;;;13.87;8.40;;;;;;;;;;4307359;33;317438;-78
2024/01/08 10:18:41;;;;;;;13.93;8.47;;;;;;;;;;4315228;32;316765;-78
2024/01/08 10:21:10;;;;;;;18.10;8.60;;;;;;;;;;4301706;32;317154;-77
2024/01/08 10:23:38;;;;;;;15.77;9.40;;;;;;;;;;4309981;33;316650;-77
2024/01/08 10:26:07;;;;;;;29.90;14.60;;;;;;;;;;4308244;32;316720;-77
2024/01/08 10:28:37;;;;;;;17.83;9.07;;;;;;;;;;4316934;32;317904;-78
2024/01/08 10:31:05;;;;;;;20.27;8.87;;;;;;;;;;4347351;32;316531;-79
2024/01/08 10:33:38;;;;;;;14.70;7.27;;;;;;;;;;4378019;32;317353;-78
2024/01/08 10:36:07;;;;;;;16.70;10.33;;;;;;;;;;4367827;32;316969;-78
2024/01/08 10:38:35;;;;;;;39.07;17.53;;;;;;;;;;4376826;32;316808;-77
2024/01/08 10:41:04;;;;;;;17.50;9.63;;;;;;;;;;4362477;32;318207;-77
2024/01/08 10:43:32;;;;;;;41.83;17.83;;;;;;;;;;4378162;32;317275;-78
2024/01/08 10:46:00;;;;;;;14.27;8.67;;;;;;;;;;4369193;32;331659;-77
2024/01/08 10:48:40;;;;;;;6.33;4.57;;;;;;;;;;4376968;32;315608;-77
2024/01/08 10:51:07;;;;;;;8.13;5.90;;;;;;;;;;4362342;32;315673;-77
2024/01/08 10:53:46;;;;;;;5.77;3.60;;;;;;;;;;4378905;32;315753;-77
2024/01/08 10:56:15;;;;;;;5.80;3.10;;;;;;;;;;4367554;32;316206;-78
2024/01/08 10:58:51;;;;;;;5.47;3.70;;;;;;;;;;4377681;32;316200;-78
2024/01/08 11:01:19;;;;;;;4.90;3.67;;;;;;;;;;4360715;32;316129;-78
2024/01/08 11:03:47;;;;;;;5.40;4.00;;;;;;;;;;4377313;32;314724;-78
2024/01/08 11:06:14;;;;;;;5.37;4.20;;;;;;;;;;4367439;32;316174;-78
2024/01/08 11:08:42;;;;;;;8.50;6.53;;;;;;;;;;4375469;32;316396;-78
2024/01/08 11:11:12;;;;;;;9.97;7.33;;;;;;;;;;4360528;32;317320;-77
2024/01/08 11:13:40;;;;;;;7.50;6.00;;;;;;;;;;4378326;32;315489;-77
2024/01/08 11:16:08;;;;;;;12.10;7.93;;;;;;;;;;4366391;32;315975;-77
2024/01/08 11:18:38;;;;;;;9.73;7.00;;;;;;;;;;4376836;32;316384;-78
2024/01/08 11:21:06;;;;;;;19.73;14.07;;;;;;;;;;4364101;32;315910;-77
2024/01/08 11:23:38;;;;;;;29.60;17.30;;;;;;;;;;4377986;32;317413;-78
2024/01/08 11:26:10;;;;;;;8.73;6.03;;;;;;;;;;4366863;32;317920;-78
2024/01/08 11:28:40;;;;;;;7.97;5.40;;;;;;;;;;4377876;32;316055;-78
2024/01/08 11:31:56;;;;;;;7.40;4.17;;;;;;;;;;4360354;32;326574;-77
2024/01/08 11:34:55;;;;;;;9.87;5.30;;;;;;;;;;4361866;32;418034;-77
2024/01/08 11:37:42;;;;;;;6.73;4.77;;;;;;;;;;4383629;32;414093;-78
2024/01/08 11:40:17;;;;;;;16.13;8.27;;;;;;;;;;4403669;32;20601;-77
2024/01/08 11:42:44;;;;;;;11.13;7.47;;;;;;;;;;4403402;32;20350;-78
2024/01/08 11:45:13;;;;;;;15.53;8.40;;;;;;;;;;4402855;32;20787;-78
2024/01/08 11:47:40;;;;;;;18.50;14.23;;;;;;;;;;4403418;32;20221;-78
2024/01/08 11:50:09;;;;;;;8.70;6.20;;;;;;;;;;4403124;32;20592;-78
2024/01/08 11:52:38;;;;;;;8.70;5.10;;;;;;;;;;4403428;32;20241;-77
2024/01/08 11:55:11;;;;;;;6.33;4.30;;;;;;;;;;4374292;32;314833;-78
2024/01/08 11:57:40;;;;;;;8.17;4.70;;;;;;;;;;4354784;32;315280;-78
2024/01/08 12:00:19;;;;;;;3.77;3.00;;;;;;;;;;4377661;32;315452;-77
2024/01/08 12:02:49;;;;;;;8.33;4.40;;;;;;;;;;4367035;32;315315;-78
2024/01/08 12:05:16;;;;;;;8.87;5.40;;;;;;;;;;4371682;32;316173;-77
2024/01/08 12:07:44;;;;;;;6.33;3.30;;;;;;;;;;4403342;32;20309;-77
2024/01/08 12:10:14;;;;;;;7.47;3.90;;;;;;;;;;4406682;32;20282;-76
2024/01/08 12:12:40;;;;;;;6.73;4.40;;;;;;;;;;4406903;32;20248;-78
2024/01/08 12:15:09;;;;;;;12.57;7.43;;;;;;;;;;4406454;32;20248;-78
2024/01/08 12:17:37;;;;;;;15.43;8.53;;;;;;;;;;4406194;32;20637;-78
2024/01/08 12:20:06;;;;;;;11.40;7.83;;;;;;;;;;4406433;32;20388;-78
2024/01/08 12:22:34;;;;;;;6.73;4.20;;;;;;;;;;4386096;32;344077;-78
2024/01/08 12:25:07;;;;;;;5.73;4.60;;;;;;;;;;4381005;32;315222;-78
2024/01/08 12:27:35;;;;;;;17.87;11.83;;;;;;;;;;4369580;32;316150;-77
2024/01/08 12:30:03;;;;;;;15.50;10.00;;;;;;;;;;4379504;32;317676;-77
2024/01/08 12:32:30;;;;;;;16.83;11.20;;;;;;;;;;4363448;32;318135;-77
2024/01/08 12:35:00;;;;;;;15.30;8.50;;;;;;;;;;4380694;32;318253;-77
2024/01/08 12:37:32;;;;;;;20.83;10.20;;;;;;;;;;4370657;32;317225;-77
2024/01/08 12:40:00;;;;;;;24.13;13.47;;;;;;;;;;4380750;32;318273;-78
2024/01/08 12:42:28;;;;;;;16.97;10.77;;;;;;;;;;4355041;32;317849;-77
2024/01/08 12:44:58;;;;;;;31.47;20.83;;;;;;;;;;4375174;32;317945;-77
2024/01/08 12:47:25;;;;;;;28.17;16.80;;;;;;;;;;4367491;32;317787;-77
2024/01/08 12:49:53;;;;;;;37.80;24.07;;;;;;;;;;4379062;32;317920;-79
2024/01/08 12:52:22;;;;;;;32.17;19.00;;;;;;;;;;4378517;32;316390;-78
2024/01/08 12:54:51;;;;;;;21.53;12.97;;;;;;;;;;4364406;32;417787;-76
2024/01/08 12:57:27;;;;;;;25.53;16.33;;;;;;;;;;4379384;32;318096;-77
2024/01/08 12:59:55;;;;;;;56.43;31.77;;;;;;;;;;4365458;32;418628;-77
2024/01/08 13:02:25;;;;;;;61.10;35.40;;;;;;;;;;4369786;32;318825;-78
2024/01/08 13:04:53;;;;;;;22.77;12.97;;;;;;;;;;4378223;32;317443;-78
2024/01/08 13:07:21;;;;;;;11.77;7.63;;;;;;;;;;4380588;32;318176;-77
2024/01/08 13:09:50;;;;;;;11.13;7.40;;;;;;;;;;4354518;32;416787;-77
2024/01/08 13:12:18;;;;;;;15.33;10.63;;;;;;;;;;4380269;32;317090;-78
2024/01/08 13:14:44;;;;;;;15.10;11.37;;;;;;;;;;4364459;32;318045;-78
2024/01/08 13:17:12;;;;;;;15.37;9.70;;;;;;;;;;4378729;32;317358;-77
2024/01/08 13:19:42;;;;;;;20.53;11.70;;;;;;;;;;4360190;32;317030;-77
2024/01/08 13:22:11;;;;;;;7.83;5.03;;;;;;;;;;4364913;32;316591;-78
2024/01/08 13:24:38;;;;;;;6.27;4.83;;;;;;;;;;4348218;32;315430;-77
2024/01/08 13:27:12;;;;;;;15.60;10.00;;;;;;;;;;4362057;32;353162;-76
2024/01/08 13:29:41;;;;;;;23.27;16.30;;;;;;;;;;4353437;32;316675;-77
2024/01/08 13:32:11;;;;;;;24.07;15.07;;;;;;;;;;4364534;32;317342;-77
2024/01/08 13:34:40;;;;;;;23.77;15.63;;;;;;;;;;4346917;32;336349;-77
2024/01/08 13:37:12;;;;;;;27.43;16.80;;;;;;;;;;4364728;32;318241;-77
2024/01/08 13:39:40;;;;;;;19.00;12.10;;;;;;;;;;4347597;32;318187;-77
2024/01/08 13:42:08;;;;;;;18.80;12.40;;;;;;;;;;4365256;32;318331;-78
2024/01/08 13:44:39;;;;;;;15.00;8.90;;;;;;;;;;4353314;32;317603;-77
2024/01/08 13:47:07;;;;;;;13.90;10.40;;;;;;;;;;4380334;32;315299;-77
2024/01/08 13:49:34;;;;;;;14.50;9.83;;;;;;;;;;4369785;32;317214;-77
2024/01/08 13:52:02;;;;;;;12.30;7.37;;;;;;;;;;4383261;32;315641;-77
2024/01/08 13:54:34;;;;;;;18.30;12.20;;;;;;;;;;4365178;32;315721;-76
2024/01/08 13:57:02;;;;;;;32.80;19.80;;;;;;;;;;4378742;32;318097;-77
2024/01/08 13:59:32;;;;;;;21.23;13.03;;;;;;;;;;4359723;32;317006;-77
2024/01/08 14:02:00;;;;;;;14.43;9.27;;;;;;;;;;4351722;32;317816;-77
2024/01/08 14:04:27;;;;;;;19.60;9.67;;;;;;;;;;4335691;32;317045;-77
2024/01/08 14:06:55;;;;;;;29.40;21.43;;;;;;;;;;4343058;32;316754;-77
2024/01/08 14:09:22;;;;;;;6.60;5.27;;;;;;;;;;4337167;32;318122;-77
2024/01/08 14:11:52;;;;;;;8.17;6.00;;;;;;;;;;4345827;32;316097;-77
2024/01/08 14:14:20;;;;;;;22.67;9.10;;;;;;;;;;4347322;32;314899;-77
2024/01/08 14:16:48;;;;;;;27.83;18.73;;;;;;;;;;4312989;32;416473;-77
2024/01/08 14:19:15;;;;;;;18.53;11.53;;;;;;;;;;4331489;32;316508;-77
2024/01/08 14:21:44;;;;;;;55.73;34.83;;;;;;;;;;4321032;32;317598;-77
2024/01/08 14:24:12;;;;;;;26.57;16.63;;;;;;;;;;4331155;32;318227;-77
2024/01/08 14:26:43;;;;;;;20.03;13.00;;;;;;;;;;4315311;32;318137;-77
2024/01/08 14:29:11;;;;;;;18.60;10.77;;;;;;;;;;4330736;32;318119;-77
2024/01/08 14:31:43;;;;;;;15.47;9.13;;;;;;;;;;4321421;32;318158;-77